Postoak, Texas
Current Conditions -  °F | °C
As of 10:35 PM on Sunday 21 Dec 2014 (Local Time) from K0F2 Reporting Station
Overcast Overcast  
Wind Chill: 44°   Ceiling: 900
Heat Index: 49°   Visibility: 7mi
Dew Point: 47°   Wind: 14mph
Humidity: 93%   Direction: 160°SSE
Pressure: 29.68"   Gusts: 22mph
Location:  33.5529°N, 97.8448°W
Report Text: K0F2 220435Z AUTO 16012G19KT 7SM OVC009 10/09 A2968 RMK AO2 T00960085
Loading
Personal Weather Stations






























Interactive Weather Map New forecast layout! Learn more

10-Day Weather Forecast

Advertisements
Track Severe Weather on mobile